Nearby METAR Reports

 

KCOE - Coeur D'alene, Idaho, USA
Distance from station: SSE 4mi, 7km
Updated: Mon, 24-Jan-2022 10:56am PST
Light snow, Freezing, Fog, Overcast
Light snow, Freezing, Fog, Overcast
 Wind from SW
Wind: SW 7 mph , 11 km/h
Temperature: 28°F , -2°C
Wind Chill: 21°F , -6°C
Dew Point: 27°F , -3°C
Humidity: 93%
Barometer: 30.20 inHg , 1022.7 hPa
Summary: Light snow, Freezing, Fog
Clouds: Overcast
Visibility: 1/2 mile , 0.8 km
Cloud details: Overcast 100 ft
2022/01/24 18:56 KCOE 241856Z AUTO 23006KT 1/2SM -SN FZFG OVC001 M02/M03 A3020 RMK AO2 SNB21 SLP272 T10221028 FZRANO PNO $
KSFF - Spokane/Felts, Washington, USA
Distance from station: WSW 24mi, 39km
Updated: Mon, 24-Jan-2022 10:53am PST
Mist, Overcast
Mist, Overcast
 Wind from calm
Wind: Calm
Temperature: 30°F , -1°C
Dew Point: 28°F , -2°C
Humidity: 93%
Barometer: 30.23 inHg , 1023.7 hPa
Summary: Mist
Clouds: Overcast
Visibility: 4 miles , 6 km
Cloud details: Overcast 600 ft
2022/01/24 18:53 KSFF 241853Z 00000KT 4SM BR OVC006 M01/M02 A3023 RMK AO2 SLP257 T10111022
 
KDEW - Deer Park, Washington, USA
Distance from station: WNW 29mi, 47km
Updated: Mon, 24-Jan-2022 10:53am PST
Freezing fog, Overcast
Freezing fog, Overcast
 Wind from calm
Wind: Calm
Temperature: 28°F , -2°C
Dew Point: 27°F , -3°C
Humidity: 93%
Barometer: 30.21 inHg , 1023 hPa
Summary: Freezing Fog
Clouds: Overcast
Visibility: 1/4 mile , 0.4 km
Cloud details: Overcast 200 ft
2022/01/24 18:53 KDEW 241853Z AUTO 00000KT 1/4SM FZFG VV002 M02/M03 A3021 RMK AO2 SLP257 I1001 T10221033
KSZT - Wall/Sandpoint, Idaho, USA
Distance from station: NNE 35mi, 56km
Updated: Mon, 24-Jan-2022 10:55am PST
Overcast
Overcast
 Wind from calm
Wind: Calm
Temperature: 30°F , -1°C
Dew Point: 28°F , -2°C
Humidity: 93%
Barometer: 30.20 inHg , 1022.7 hPa
Clouds: Overcast
Visibility: 10 miles , 16 km
Cloud details: Overcast 1200 ft
2022/01/24 18:55 KSZT 241855Z AUTO 00000KT 10SM OVC012 M01/M02 A3020 RMK AO2
 
KGEG - Spokane/Metro, Washington, USA
Distance from station: WSW 35mi, 57km
Updated: Mon, 24-Jan-2022 10:53am PST
Mist, Overcast
Mist, Overcast
 Wind from N
Wind: N 3 mph , 6 km/h
Temperature: 28°F , -2°C
Dew Point: 27°F , -3°C
Humidity: 93%
Barometer: 30.20 inHg , 1022.7 hPa
Summary: Mist
Clouds: Overcast
Visibility: 1/2 mile , 0.8 km
Cloud details: Overcast 300 ft
2022/01/24 18:53 KGEG 241853Z 35003KT 1/2SM R21/P6000FT BR OVC003 M02/M03 A3020 RMK AO2 SFC VIS 6 SLP252 T10171033
KSKA - Fairchild Afb, Washington, USA
Distance from station: WSW 40mi, 65km
Updated: Mon, 24-Jan-2022 10:58am PST
Mist, Overcast
Mist, Overcast
 Wind from calm
Wind: Calm
Temperature: 28°F , -2°C
Dew Point: 27°F , -3°C
Humidity: 93%
Barometer: 30.18 inHg , 1022 hPa
Summary: Mist
Clouds: Overcast
Visibility: 4 miles , 6 km
Cloud details: Overcast 500 ft
2022/01/24 18:58 KSKA 241858Z 00000KT 4SM BR OVC005 M02/M03 A3018 RMK AO2A SLP250 T10251026 $